sensor_id;sensor_type;location;lat;lon;timestamp;P1;durP1;ratioP1;P2;durP2;ratioP2
4084;SDS011;2057;50.858;6.572;2024-02-16T00:00:17;5.07;;;2.80;;
4084;SDS011;2057;50.858;6.572;2024-02-16T00:02:43;4.80;;;2.30;;
4084;SDS011;2057;50.858;6.572;2024-02-16T00:05:09;5.90;;;2.17;;
4084;SDS011;2057;50.858;6.572;2024-02-16T00:07:39;2.90;;;2.40;;
4084;SDS011;2057;50.858;6.572;2024-02-16T00:10:06;5.43;;;2.57;;
4084;SDS011;2057;50.858;6.572;2024-02-16T00:12:32;4.00;;;2.70;;
4084;SDS011;2057;50.858;6.572;2024-02-16T00:14:59;5.33;;;2.43;;
4084;SDS011;2057;50.858;6.572;2024-02-16T00:17:29;4.60;;;2.50;;
4084;SDS011;2057;50.858;6.572;2024-02-16T00:20:00;2.80;;;2.00;;
4084;SDS011;2057;50.858;6.572;2024-02-16T00:22:25;2.90;;;2.30;;
4084;SDS011;2057;50.858;6.572;2024-02-16T00:24:51;8.03;;;2.40;;
4084;SDS011;2057;50.858;6.572;2024-02-16T00:27:16;12.00;;;2.80;;
4084;SDS011;2057;50.858;6.572;2024-02-16T00:29:42;5.03;;;2.10;;
4084;SDS011;2057;50.858;6.572;2024-02-16T00:32:13;2.70;;;2.03;;
4084;SDS011;2057;50.858;6.572;2024-02-16T00:34:40;6.50;;;2.40;;
4084;SDS011;2057;50.858;6.572;2024-02-16T00:37:06;3.00;;;2.10;;
4084;SDS011;2057;50.858;6.572;2024-02-16T00:39:38;5.03;;;2.23;;
4084;SDS011;2057;50.858;6.572;2024-02-16T00:42:06;4.57;;;2.43;;
4084;SDS011;2057;50.858;6.572;2024-02-16T00:44:32;6.90;;;3.20;;
4084;SDS011;2057;50.858;6.572;2024-02-16T00:47:00;4.53;;;1.70;;
4084;SDS011;2057;50.858;6.572;2024-02-16T00:49:25;3.20;;;2.33;;
4084;SDS011;2057;50.858;6.572;2024-02-16T00:51:51;7.13;;;2.60;;
4084;SDS011;2057;50.858;6.572;2024-02-16T00:54:22;4.67;;;3.20;;
4084;SDS011;2057;50.858;6.572;2024-02-16T00:56:49;4.00;;;2.33;;
4084;SDS011;2057;50.858;6.572;2024-02-16T00:59:15;4.90;;;2.37;;
4084;SDS011;2057;50.858;6.572;2024-02-16T01:01:43;2.77;;;2.20;;
4084;SDS011;2057;50.858;6.572;2024-02-16T01:04:10;6.40;;;2.50;;
4084;SDS011;2057;50.858;6.572;2024-02-16T01:06:36;6.73;;;2.60;;
4084;SDS011;2057;50.858;6.572;2024-02-16T01:09:04;4.23;;;2.53;;
4084;SDS011;2057;50.858;6.572;2024-02-16T01:11:30;4.63;;;2.17;;
4084;SDS011;2057;50.858;6.572;2024-02-16T01:13:55;3.87;;;2.67;;
4084;SDS011;2057;50.858;6.572;2024-02-16T01:16:21;5.20;;;2.50;;
4084;SDS011;2057;50.858;6.572;2024-02-16T01:18:46;3.73;;;2.57;;
4084;SDS011;2057;50.858;6.572;2024-02-16T01:21:11;5.37;;;3.57;;
4084;SDS011;2057;50.858;6.572;2024-02-16T01:23:37;8.40;;;2.63;;
4084;SDS011;2057;50.858;6.572;2024-02-16T01:26:02;4.67;;;2.77;;
4084;SDS011;2057;50.858;6.572;2024-02-16T01:28:28;7.93;;;3.10;;
4084;SDS011;2057;50.858;6.572;2024-02-16T01:30:53;10.00;;;3.47;;
4084;SDS011;2057;50.858;6.572;2024-02-16T01:33:24;6.40;;;2.40;;
4084;SDS011;2057;50.858;6.572;2024-02-16T01:35:51;5.70;;;2.43;;
4084;SDS011;2057;50.858;6.572;2024-02-16T01:38:17;6.13;;;2.67;;
4084;SDS011;2057;50.858;6.572;2024-02-16T01:40:42;9.63;;;3.07;;
4084;SDS011;2057;50.858;6.572;2024-02-16T01:43:09;7.40;;;3.03;;
4084;SDS011;2057;50.858;6.572;2024-02-16T01:45:35;4.53;;;2.57;;
4084;SDS011;2057;50.858;6.572;2024-02-16T01:48:05;4.47;;;2.47;;
4084;SDS011;2057;50.858;6.572;2024-02-16T01:50:31;5.43;;;2.83;;
4084;SDS011;2057;50.858;6.572;2024-02-16T01:52:58;4.57;;;2.63;;
4084;SDS011;2057;50.858;6.572;2024-02-16T01:55:26;10.27;;;3.80;;
4084;SDS011;2057;50.858;6.572;2024-02-16T01:57:51;6.40;;;2.80;;
4084;SDS011;2057;50.858;6.572;2024-02-16T02:00:19;4.83;;;3.27;;
4084;SDS011;2057;50.858;6.572;2024-02-16T02:02:45;5.53;;;2.37;;
4084;SDS011;2057;50.858;6.572;2024-02-16T02:05:14;4.07;;;2.60;;
4084;SDS011;2057;50.858;6.572;2024-02-16T02:07:40;9.10;;;2.57;;
4084;SDS011;2057;50.858;6.572;2024-02-16T02:10:05;4.40;;;2.50;;
4084;SDS011;2057;50.858;6.572;2024-02-16T02:12:31;4.50;;;2.70;;
4084;SDS011;2057;50.858;6.572;2024-02-16T02:14:56;8.50;;;3.47;;
4084;SDS011;2057;50.858;6.572;2024-02-16T02:17:22;5.63;;;2.67;;
4084;SDS011;2057;50.858;6.572;2024-02-16T02:19:52;6.17;;;2.90;;
4084;SDS011;2057;50.858;6.572;2024-02-16T02:22:18;2.33;;;2.03;;
4084;SDS011;2057;50.858;6.572;2024-02-16T02:24:44;5.93;;;2.40;;
4084;SDS011;2057;50.858;6.572;2024-02-16T02:27:10;6.13;;;3.10;;
4084;SDS011;2057;50.858;6.572;2024-02-16T02:29:36;2.87;;;2.57;;
4084;SDS011;2057;50.858;6.572;2024-02-16T02:32:07;5.70;;;2.60;;
4084;SDS011;2057;50.858;6.572;2024-02-16T02:34:34;4.07;;;2.93;;
4084;SDS011;2057;50.858;6.572;2024-02-16T02:37:01;3.47;;;2.67;;
4084;SDS011;2057;50.858;6.572;2024-02-16T02:39:26;2.67;;;2.40;;
4084;SDS011;2057;50.858;6.572;2024-02-16T02:41:52;9.37;;;3.10;;
4084;SDS011;2057;50.858;6.572;2024-02-16T02:44:17;4.83;;;2.50;;
4084;SDS011;2057;50.858;6.572;2024-02-16T02:46:44;8.40;;;2.17;;
4084;SDS011;2057;50.858;6.572;2024-02-16T02:49:09;5.10;;;2.67;;
4084;SDS011;2057;50.858;6.572;2024-02-16T02:51:34;5.47;;;3.17;;
4084;SDS011;2057;50.858;6.572;2024-02-16T02:54:03;6.73;;;3.00;;
4084;SDS011;2057;50.858;6.572;2024-02-16T02:56:28;5.10;;;2.63;;
4084;SDS011;2057;50.858;6.572;2024-02-16T02:58:53;11.50;;;2.87;;
4084;SDS011;2057;50.858;6.572;2024-02-16T03:01:19;3.90;;;2.90;;
4084;SDS011;2057;50.858;6.572;2024-02-16T03:03:47;5.93;;;2.97;;
4084;SDS011;2057;50.858;6.572;2024-02-16T03:06:13;2.90;;;2.40;;
4084;SDS011;2057;50.858;6.572;2024-02-16T03:08:42;6.53;;;2.80;;
4084;SDS011;2057;50.858;6.572;2024-02-16T03:11:07;10.17;;;3.20;;
4084;SDS011;2057;50.858;6.572;2024-02-16T03:13:35;5.33;;;3.10;;
4084;SDS011;2057;50.858;6.572;2024-02-16T03:16:00;5.90;;;2.63;;
4084;SDS011;2057;50.858;6.572;2024-02-16T03:18:29;7.40;;;3.33;;
4084;SDS011;2057;50.858;6.572;2024-02-16T03:20:55;3.70;;;2.20;;
4084;SDS011;2057;50.858;6.572;2024-02-16T03:23:23;4.70;;;3.10;;
4084;SDS011;2057;50.858;6.572;2024-02-16T03:25:49;4.60;;;3.17;;
4084;SDS011;2057;50.858;6.572;2024-02-16T03:28:15;8.00;;;3.50;;
4084;SDS011;2057;50.858;6.572;2024-02-16T03:30:41;5.83;;;2.50;;
4084;SDS011;2057;50.858;6.572;2024-02-16T03:33:07;6.40;;;3.13;;
4084;SDS011;2057;50.858;6.572;2024-02-16T03:35:33;6.43;;;3.73;;
4084;SDS011;2057;50.858;6.572;2024-02-16T03:38:06;5.83;;;3.00;;
4084;SDS011;2057;50.858;6.572;2024-02-16T03:40:31;6.27;;;3.53;;
4084;SDS011;2057;50.858;6.572;2024-02-16T03:42:57;5.20;;;2.93;;
4084;SDS011;2057;50.858;6.572;2024-02-16T03:45:23;8.40;;;3.03;;
4084;SDS011;2057;50.858;6.572;2024-02-16T03:47:48;4.63;;;2.30;;
4084;SDS011;2057;50.858;6.572;2024-02-16T03:50:14;3.67;;;2.60;;
4084;SDS011;2057;50.858;6.572;2024-02-16T03:52:40;5.47;;;3.20;;
4084;SDS011;2057;50.858;6.572;2024-02-16T03:55:05;4.70;;;2.40;;
4084;SDS011;2057;50.858;6.572;2024-02-16T03:57:31;9.53;;;3.00;;
4084;SDS011;2057;50.858;6.572;2024-02-16T03:59:56;6.17;;;3.20;;
4084;SDS011;2057;50.858;6.572;2024-02-16T04:02:22;6.40;;;3.37;;
4084;SDS011;2057;50.858;6.572;2024-02-16T04:04:47;5.33;;;2.57;;
4084;SDS011;2057;50.858;6.572;2024-02-16T04:07:12;4.80;;;2.60;;
4084;SDS011;2057;50.858;6.572;2024-02-16T04:09:38;4.27;;;3.20;;
4084;SDS011;2057;50.858;6.572;2024-02-16T04:12:03;6.30;;;2.40;;
4084;SDS011;2057;50.858;6.572;2024-02-16T04:14:29;8.27;;;3.70;;
4084;SDS011;2057;50.858;6.572;2024-02-16T04:16:55;7.83;;;3.70;;
4084;SDS011;2057;50.858;6.572;2024-02-16T04:19:25;5.90;;;2.80;;
4084;SDS011;2057;50.858;6.572;2024-02-16T04:21:51;13.57;;;4.03;;
4084;SDS011;2057;50.858;6.572;2024-02-16T04:24:16;5.67;;;2.73;;
4084;SDS011;2057;50.858;6.572;2024-02-16T04:26:42;8.00;;;2.97;;
4084;SDS011;2057;50.858;6.572;2024-02-16T04:29:09;5.97;;;3.27;;
4084;SDS011;2057;50.858;6.572;2024-02-16T04:31:38;7.10;;;2.83;;
4084;SDS011;2057;50.858;6.572;2024-02-16T04:34:07;10.63;;;3.67;;
4084;SDS011;2057;50.858;6.572;2024-02-16T04:36:32;2.93;;;2.50;;
4084;SDS011;2057;50.858;6.572;2024-02-16T04:39:00;5.07;;;3.30;;
4084;SDS011;2057;50.858;6.572;2024-02-16T04:41:26;4.33;;;3.23;;
4084;SDS011;2057;50.858;6.572;2024-02-16T04:43:51;8.40;;;3.27;;
4084;SDS011;2057;50.858;6.572;2024-02-16T04:46:18;12.63;;;4.10;;
4084;SDS011;2057;50.858;6.572;2024-02-16T04:48:46;13.13;;;4.10;;
4084;SDS011;2057;50.858;6.572;2024-02-16T04:51:11;9.23;;;2.97;;
4084;SDS011;2057;50.858;6.572;2024-02-16T04:53:37;6.17;;;2.43;;
4084;SDS011;2057;50.858;6.572;2024-02-16T04:56:02;4.10;;;2.47;;
4084;SDS011;2057;50.858;6.572;2024-02-16T04:58:28;6.20;;;2.97;;
4084;SDS011;2057;50.858;6.572;2024-02-16T05:00:58;7.80;;;2.83;;
4084;SDS011;2057;50.858;6.572;2024-02-16T05:03:24;8.53;;;2.53;;
4084;SDS011;2057;50.858;6.572;2024-02-16T05:05:50;5.47;;;2.60;;
4084;SDS011;2057;50.858;6.572;2024-02-16T05:08:17;10.00;;;3.50;;
4084;SDS011;2057;50.858;6.572;2024-02-16T05:10:43;13.90;;;3.73;;
4084;SDS011;2057;50.858;6.572;2024-02-16T05:13:08;6.60;;;3.07;;
4084;SDS011;2057;50.858;6.572;2024-02-16T05:15:33;12.40;;;3.57;;
4084;SDS011;2057;50.858;6.572;2024-02-16T05:17:59;10.77;;;3.43;;
4084;SDS011;2057;50.858;6.572;2024-02-16T05:20:24;5.07;;;3.23;;
4084;SDS011;2057;50.858;6.572;2024-02-16T05:22:50;4.50;;;2.97;;
4084;SDS011;2057;50.858;6.572;2024-02-16T05:25:16;8.17;;;3.33;;
4084;SDS011;2057;50.858;6.572;2024-02-16T05:27:42;12.10;;;2.83;;
4084;SDS011;2057;50.858;6.572;2024-02-16T05:30:14;7.00;;;3.70;;
4084;SDS011;2057;50.858;6.572;2024-02-16T05:32:41;6.47;;;3.47;;
4084;SDS011;2057;50.858;6.572;2024-02-16T05:35:07;7.70;;;3.10;;
4084;SDS011;2057;50.858;6.572;2024-02-16T05:37:46;4.67;;;3.03;;
4084;SDS011;2057;50.858;6.572;2024-02-16T05:40:16;5.93;;;2.83;;
4084;SDS011;2057;50.858;6.572;2024-02-16T05:42:55;5.80;;;3.23;;
4084;SDS011;2057;50.858;6.572;2024-02-16T05:45:27;8.87;;;3.27;;
4084;SDS011;2057;50.858;6.572;2024-02-16T05:47:55;4.40;;;3.00;;
4084;SDS011;2057;50.858;6.572;2024-02-16T05:50:20;12.63;;;3.23;;
4084;SDS011;2057;50.858;6.572;2024-02-16T05:52:46;4.07;;;3.47;;
4084;SDS011;2057;50.858;6.572;2024-02-16T05:55:11;12.80;;;3.40;;
4084;SDS011;2057;50.858;6.572;2024-02-16T05:57:38;6.37;;;3.00;;
4084;SDS011;2057;50.858;6.572;2024-02-16T06:00:06;12.67;;;4.30;;
4084;SDS011;2057;50.858;6.572;2024-02-16T06:02:33;9.43;;;3.27;;
4084;SDS011;2057;50.858;6.572;2024-02-16T06:05:00;4.93;;;3.20;;
4084;SDS011;2057;50.858;6.572;2024-02-16T06:07:25;6.37;;;3.80;;
4084;SDS011;2057;50.858;6.572;2024-02-16T06:09:51;4.43;;;2.90;;
4084;SDS011;2057;50.858;6.572;2024-02-16T06:12:17;6.50;;;3.50;;
4084;SDS011;2057;50.858;6.572;2024-02-16T06:14:43;4.93;;;3.20;;
4084;SDS011;2057;50.858;6.572;2024-02-16T06:17:10;7.97;;;3.40;;
4084;SDS011;2057;50.858;6.572;2024-02-16T06:19:36;8.23;;;3.87;;
4084;SDS011;2057;50.858;6.572;2024-02-16T06:22:01;4.23;;;3.23;;
4084;SDS011;2057;50.858;6.572;2024-02-16T06:24:29;6.10;;;3.33;;
4084;SDS011;2057;50.858;6.572;2024-02-16T06:26:55;6.63;;;3.20;;
4084;SDS011;2057;50.858;6.572;2024-02-16T06:29:20;8.33;;;2.87;;
4084;SDS011;2057;50.858;6.572;2024-02-16T06:31:48;9.80;;;3.43;;
4084;SDS011;2057;50.858;6.572;2024-02-16T06:34:14;6.63;;;3.23;;
4084;SDS011;2057;50.858;6.572;2024-02-16T06:36:40;6.90;;;3.10;;
4084;SDS011;2057;50.858;6.572;2024-02-16T06:39:07;10.43;;;3.30;;
4084;SDS011;2057;50.858;6.572;2024-02-16T06:41:34;13.40;;;3.30;;
4084;SDS011;2057;50.858;6.572;2024-02-16T06:44:04;7.70;;;3.07;;
4084;SDS011;2057;50.858;6.572;2024-02-16T06:46:30;8.90;;;2.90;;
4084;SDS011;2057;50.858;6.572;2024-02-16T06:48:55;6.10;;;3.10;;
4084;SDS011;2057;50.858;6.572;2024-02-16T06:51:22;4.87;;;3.00;;
4084;SDS011;2057;50.858;6.572;2024-02-16T06:53:48;9.00;;;3.57;;
4084;SDS011;2057;50.858;6.572;2024-02-16T06:56:14;10.53;;;2.80;;
4084;SDS011;2057;50.858;6.572;2024-02-16T06:58:42;5.57;;;2.90;;
4084;SDS011;2057;50.858;6.572;2024-02-16T07:01:07;7.10;;;3.23;;
4084;SDS011;2057;50.858;6.572;2024-02-16T07:03:33;9.33;;;3.13;;
4084;SDS011;2057;50.858;6.572;2024-02-16T07:06:01;6.23;;;3.47;;
4084;SDS011;2057;50.858;6.572;2024-02-16T07:08:27;2.60;;;1.93;;
4084;SDS011;2057;50.858;6.572;2024-02-16T07:10:53;7.23;;;2.80;;
4084;SDS011;2057;50.858;6.572;2024-02-16T07:13:19;7.70;;;3.10;;
4084;SDS011;2057;50.858;6.572;2024-02-16T07:15:46;6.33;;;3.30;;
4084;SDS011;2057;50.858;6.572;2024-02-16T07:18:12;6.33;;;3.20;;
4084;SDS011;2057;50.858;6.572;2024-02-16T07:20:38;5.27;;;3.60;;
4084;SDS011;2057;50.858;6.572;2024-02-16T07:23:05;5.27;;;3.03;;
4084;SDS011;2057;50.858;6.572;2024-02-16T07:25:30;10.03;;;3.00;;
4084;SDS011;2057;50.858;6.572;2024-02-16T07:27:56;8.77;;;3.30;;
4084;SDS011;2057;50.858;6.572;2024-02-16T07:30:21;5.80;;;2.60;;
4084;SDS011;2057;50.858;6.572;2024-02-16T07:32:49;4.63;;;2.97;;
4084;SDS011;2057;50.858;6.572;2024-02-16T07:35:17;9.20;;;4.03;;
4084;SDS011;2057;50.858;6.572;2024-02-16T07:37:42;10.93;;;3.40;;
4084;SDS011;2057;50.858;6.572;2024-02-16T07:40:08;10.13;;;3.20;;
4084;SDS011;2057;50.858;6.572;2024-02-16T07:42:39;6.97;;;3.50;;
4084;SDS011;2057;50.858;6.572;2024-02-16T07:45:09;3.40;;;2.40;;
4084;SDS011;2057;50.858;6.572;2024-02-16T07:47:36;8.83;;;3.00;;
4084;SDS011;2057;50.858;6.572;2024-02-16T07:50:02;6.03;;;2.40;;
4084;SDS011;2057;50.858;6.572;2024-02-16T07:52:28;5.00;;;2.97;;
4084;SDS011;2057;50.858;6.572;2024-02-16T07:54:54;5.23;;;2.70;;
4084;SDS011;2057;50.858;6.572;2024-02-16T07:57:19;4.57;;;3.20;;
4084;SDS011;2057;50.858;6.572;2024-02-16T07:59:44;7.93;;;3.50;;
4084;SDS011;2057;50.858;6.572;2024-02-16T08:02:10;7.30;;;2.70;;
4084;SDS011;2057;50.858;6.572;2024-02-16T08:04:40;10.83;;;2.87;;
4084;SDS011;2057;50.858;6.572;2024-02-16T08:07:08;6.80;;;3.37;;
4084;SDS011;2057;50.858;6.572;2024-02-16T08:09:34;3.43;;;2.83;;
4084;SDS011;2057;50.858;6.572;2024-02-16T08:11:59;7.20;;;3.10;;
4084;SDS011;2057;50.858;6.572;2024-02-16T08:14:25;8.40;;;3.20;;
4084;SDS011;2057;50.858;6.572;2024-02-16T08:16:53;3.70;;;2.60;;
4084;SDS011;2057;50.858;6.572;2024-02-16T08:19:18;7.90;;;3.60;;
4084;SDS011;2057;50.858;6.572;2024-02-16T08:21:43;9.50;;;3.60;;
4084;SDS011;2057;50.858;6.572;2024-02-16T08:24:09;5.70;;;3.00;;
4084;SDS011;2057;50.858;6.572;2024-02-16T08:26:34;11.60;;;2.77;;
4084;SDS011;2057;50.858;6.572;2024-02-16T08:28:59;14.60;;;4.00;;
4084;SDS011;2057;50.858;6.572;2024-02-16T08:31:25;5.20;;;3.40;;
4084;SDS011;2057;50.858;6.572;2024-02-16T08:33:50;10.53;;;4.40;;
4084;SDS011;2057;50.858;6.572;2024-02-16T08:36:16;10.90;;;3.70;;
4084;SDS011;2057;50.858;6.572;2024-02-16T08:38:44;10.87;;;3.93;;
4084;SDS011;2057;50.858;6.572;2024-02-16T08:41:09;17.63;;;4.40;;
4084;SDS011;2057;50.858;6.572;2024-02-16T08:43:34;13.63;;;3.63;;
4084;SDS011;2057;50.858;6.572;2024-02-16T08:46:00;17.10;;;3.70;;
4084;SDS011;2057;50.858;6.572;2024-02-16T08:48:28;6.57;;;3.20;;
4084;SDS011;2057;50.858;6.572;2024-02-16T08:50:55;7.13;;;3.80;;
4084;SDS011;2057;50.858;6.572;2024-02-16T08:53:21;12.80;;;4.00;;
4084;SDS011;2057;50.858;6.572;2024-02-16T08:55:47;9.53;;;4.27;;
4084;SDS011;2057;50.858;6.572;2024-02-16T08:58:14;9.63;;;2.80;;
4084;SDS011;2057;50.858;6.572;2024-02-16T09:00:40;9.57;;;3.93;;
4084;SDS011;2057;50.858;6.572;2024-02-16T09:03:05;4.80;;;2.80;;
4084;SDS011;2057;50.858;6.572;2024-02-16T09:05:31;9.13;;;3.63;;
4084;SDS011;2057;50.858;6.572;2024-02-16T09:07:56;5.10;;;3.60;;
4084;SDS011;2057;50.858;6.572;2024-02-16T09:10:22;10.00;;;3.47;;
4084;SDS011;2057;50.858;6.572;2024-02-16T09:12:48;13.47;;;4.20;;
4084;SDS011;2057;50.858;6.572;2024-02-16T09:15:13;7.00;;;3.00;;
4084;SDS011;2057;50.858;6.572;2024-02-16T09:17:38;10.80;;;2.90;;
4084;SDS011;2057;50.858;6.572;2024-02-16T09:20:04;7.97;;;3.40;;
4084;SDS011;2057;50.858;6.572;2024-02-16T09:22:33;17.10;;;3.10;;
4084;SDS011;2057;50.858;6.572;2024-02-16T09:24:58;16.00;;;2.80;;
4084;SDS011;2057;50.858;6.572;2024-02-16T09:27:25;10.70;;;3.33;;
4084;SDS011;2057;50.858;6.572;2024-02-16T09:29:50;14.60;;;3.57;;
4084;SDS011;2057;50.858;6.572;2024-02-16T09:32:16;11.50;;;3.00;;
4084;SDS011;2057;50.858;6.572;2024-02-16T09:34:43;8.80;;;3.50;;
4084;SDS011;2057;50.858;6.572;2024-02-16T09:37:09;9.80;;;3.00;;
4084;SDS011;2057;50.858;6.572;2024-02-16T09:39:36;15.20;;;3.77;;
4084;SDS011;2057;50.858;6.572;2024-02-16T09:42:05;7.90;;;2.83;;
4084;SDS011;2057;50.858;6.572;2024-02-16T09:44:32;5.63;;;3.80;;
4084;SDS011;2057;50.858;6.572;2024-02-16T09:47:00;8.63;;;3.60;;
4084;SDS011;2057;50.858;6.572;2024-02-16T09:49:27;6.93;;;2.90;;
4084;SDS011;2057;50.858;6.572;2024-02-16T09:51:53;12.23;;;3.30;;
4084;SDS011;2057;50.858;6.572;2024-02-16T09:54:24;9.53;;;3.17;;
4084;SDS011;2057;50.858;6.572;2024-02-16T09:56:50;10.70;;;3.23;;
4084;SDS011;2057;50.858;6.572;2024-02-16T09:59:15;12.57;;;2.97;;
4084;SDS011;2057;50.858;6.572;2024-02-16T10:01:40;6.37;;;2.60;;
4084;SDS011;2057;50.858;6.572;2024-02-16T10:04:06;7.43;;;3.23;;
4084;SDS011;2057;50.858;6.572;2024-02-16T10:06:45;10.03;;;3.87;;
4084;SDS011;2057;50.858;6.572;2024-02-16T10:09:24;16.07;;;3.17;;
4084;SDS011;2057;50.858;6.572;2024-02-16T10:11:54;11.33;;;3.00;;
4084;SDS011;2057;50.858;6.572;2024-02-16T10:14:22;8.10;;;3.27;;
4084;SDS011;2057;50.858;6.572;2024-02-16T10:17:03;4.93;;;2.70;;
4084;SDS011;2057;50.858;6.572;2024-02-16T10:19:33;11.53;;;3.67;;
4084;SDS011;2057;50.858;6.572;2024-02-16T10:22:13;11.17;;;3.47;;
4084;SDS011;2057;50.858;6.572;2024-02-16T10:24:39;6.70;;;2.67;;
4084;SDS011;2057;50.858;6.572;2024-02-16T10:27:05;10.60;;;3.90;;
4084;SDS011;2057;50.858;6.572;2024-02-16T10:29:32;13.50;;;5.10;;
4084;SDS011;2057;50.858;6.572;2024-02-16T10:31:59;10.73;;;3.33;;
4084;SDS011;2057;50.858;6.572;2024-02-16T10:34:24;7.03;;;3.27;;
4084;SDS011;2057;50.858;6.572;2024-02-16T10:36:53;8.77;;;3.90;;
4084;SDS011;2057;50.858;6.572;2024-02-16T10:39:21;8.43;;;3.10;;
4084;SDS011;2057;50.858;6.572;2024-02-16T10:41:47;8.90;;;3.10;;
4084;SDS011;2057;50.858;6.572;2024-02-16T10:44:13;14.53;;;4.13;;
4084;SDS011;2057;50.858;6.572;2024-02-16T10:46:42;11.23;;;3.73;;
4084;SDS011;2057;50.858;6.572;2024-02-16T10:49:10;9.87;;;3.83;;
4084;SDS011;2057;50.858;6.572;2024-02-16T10:51:37;9.93;;;3.30;;
4084;SDS011;2057;50.858;6.572;2024-02-16T10:54:05;11.37;;;3.70;;
4084;SDS011;2057;50.858;6.572;2024-02-16T10:56:32;11.80;;;3.53;;
4084;SDS011;2057;50.858;6.572;2024-02-16T10:59:05;9.47;;;3.60;;
4084;SDS011;2057;50.858;6.572;2024-02-16T11:01:40;9.63;;;3.30;;
4084;SDS011;2057;50.858;6.572;2024-02-16T11:04:11;10.43;;;3.73;;
4084;SDS011;2057;50.858;6.572;2024-02-16T11:06:48;12.10;;;3.40;;
4084;SDS011;2057;50.858;6.572;2024-02-16T11:09:23;8.23;;;4.10;;
4084;SDS011;2057;50.858;6.572;2024-02-16T11:11:54;9.33;;;3.73;;
4084;SDS011;2057;50.858;6.572;2024-02-16T11:17:01;10.80;;;4.10;;
4084;SDS011;2057;50.858;6.572;2024-02-16T11:19:29;8.83;;;4.83;;
4084;SDS011;2057;50.858;6.572;2024-02-16T11:21:58;8.63;;;4.03;;
4084;SDS011;2057;50.858;6.572;2024-02-16T11:24:29;9.80;;;3.00;;
4084;SDS011;2057;50.858;6.572;2024-02-16T11:26:57;15.97;;;3.90;;
4084;SDS011;2057;50.858;6.572;2024-02-16T11:29:23;12.53;;;4.03;;
4084;SDS011;2057;50.858;6.572;2024-02-16T11:31:50;9.40;;;3.47;;
4084;SDS011;2057;50.858;6.572;2024-02-16T11:34:22;14.23;;;4.33;;
4084;SDS011;2057;50.858;6.572;2024-02-16T11:36:48;7.70;;;3.27;;
4084;SDS011;2057;50.858;6.572;2024-02-16T11:39:13;10.37;;;3.33;;
4084;SDS011;2057;50.858;6.572;2024-02-16T11:41:42;5.93;;;3.20;;
4084;SDS011;2057;50.858;6.572;2024-02-16T11:44:07;12.87;;;4.47;;
4084;SDS011;2057;50.858;6.572;2024-02-16T11:46:32;5.73;;;3.47;;
4084;SDS011;2057;50.858;6.572;2024-02-16T11:49:04;10.30;;;3.60;;
4084;SDS011;2057;50.858;6.572;2024-02-16T11:51:31;11.97;;;4.53;;
4084;SDS011;2057;50.858;6.572;2024-02-16T11:53:58;7.17;;;3.47;;
4084;SDS011;2057;50.858;6.572;2024-02-16T11:56:24;14.90;;;3.77;;
4084;SDS011;2057;50.858;6.572;2024-02-16T11:58:52;20.47;;;5.03;;
4084;SDS011;2057;50.858;6.572;2024-02-16T12:01:21;7.40;;;3.60;;
4084;SDS011;2057;50.858;6.572;2024-02-16T12:03:49;4.67;;;3.40;;
4084;SDS011;2057;50.858;6.572;2024-02-16T12:06:23;11.20;;;4.10;;
4084;SDS011;2057;50.858;6.572;2024-02-16T12:08:49;15.87;;;3.70;;
4084;SDS011;2057;50.858;6.572;2024-02-16T12:11:17;10.50;;;3.77;;
4084;SDS011;2057;50.858;6.572;2024-02-16T12:13:42;10.83;;;4.17;;
4084;SDS011;2057;50.858;6.572;2024-02-16T12:16:09;14.83;;;4.00;;
4084;SDS011;2057;50.858;6.572;2024-02-16T12:18:35;12.77;;;4.30;;
4084;SDS011;2057;50.858;6.572;2024-02-16T12:21:04;8.57;;;3.20;;
4084;SDS011;2057;50.858;6.572;2024-02-16T12:23:31;12.17;;;3.90;;
4084;SDS011;2057;50.858;6.572;2024-02-16T12:25:57;7.87;;;4.40;;
4084;SDS011;2057;50.858;6.572;2024-02-16T12:28:24;11.27;;;4.77;;
4084;SDS011;2057;50.858;6.572;2024-02-16T12:30:51;26.07;;;6.47;;
4084;SDS011;2057;50.858;6.572;2024-02-16T12:33:16;15.50;;;4.77;;
4084;SDS011;2057;50.858;6.572;2024-02-16T12:35:42;13.37;;;4.40;;
4084;SDS011;2057;50.858;6.572;2024-02-16T12:38:10;8.27;;;4.53;;
4084;SDS011;2057;50.858;6.572;2024-02-16T12:40:36;8.13;;;5.00;;
4084;SDS011;2057;50.858;6.572;2024-02-16T12:43:01;17.23;;;4.73;;
4084;SDS011;2057;50.858;6.572;2024-02-16T12:45:27;12.57;;;4.67;;
4084;SDS011;2057;50.858;6.572;2024-02-16T12:47:54;12.80;;;5.40;;
4084;SDS011;2057;50.858;6.572;2024-02-16T12:50:22;7.30;;;4.10;;
4084;SDS011;2057;50.858;6.572;2024-02-16T12:52:47;9.80;;;4.17;;
4084;SDS011;2057;50.858;6.572;2024-02-16T12:55:13;7.90;;;4.23;;
4084;SDS011;2057;50.858;6.572;2024-02-16T12:57:39;8.73;;;4.10;;
4084;SDS011;2057;50.858;6.572;2024-02-16T13:00:04;10.53;;;4.10;;
4084;SDS011;2057;50.858;6.572;2024-02-16T13:02:32;7.27;;;3.83;;
4084;SDS011;2057;50.858;6.572;2024-02-16T13:04:58;8.43;;;4.00;;
4084;SDS011;2057;50.858;6.572;2024-02-16T13:07:23;8.13;;;4.07;;
4084;SDS011;2057;50.858;6.572;2024-02-16T13:09:49;9.53;;;4.20;;
4084;SDS011;2057;50.858;6.572;2024-02-16T13:12:16;11.93;;;4.17;;
4084;SDS011;2057;50.858;6.572;2024-02-16T13:14:42;12.83;;;4.40;;
4084;SDS011;2057;50.858;6.572;2024-02-16T13:17:07;14.07;;;6.33;;
4084;SDS011;2057;50.858;6.572;2024-02-16T13:19:32;25.07;;;6.83;;
4084;SDS011;2057;50.858;6.572;2024-02-16T13:21:58;11.50;;;5.30;;
4084;SDS011;2057;50.858;6.572;2024-02-16T13:24:23;10.03;;;5.67;;
4084;SDS011;2057;50.858;6.572;2024-02-16T13:26:49;22.07;;;5.90;;
4084;SDS011;2057;50.858;6.572;2024-02-16T13:29:17;8.80;;;4.57;;
4084;SDS011;2057;50.858;6.572;2024-02-16T13:31:42;10.37;;;6.27;;
4084;SDS011;2057;50.858;6.572;2024-02-16T13:34:10;11.60;;;5.33;;
4084;SDS011;2057;50.858;6.572;2024-02-16T13:36:36;22.73;;;6.20;;
4084;SDS011;2057;50.858;6.572;2024-02-16T13:39:01;9.50;;;5.23;;
4084;SDS011;2057;50.858;6.572;2024-02-16T13:41:30;8.37;;;5.00;;
4084;SDS011;2057;50.858;6.572;2024-02-16T13:43:55;9.07;;;5.67;;
4084;SDS011;2057;50.858;6.572;2024-02-16T13:46:21;19.80;;;7.10;;
4084;SDS011;2057;50.858;6.572;2024-02-16T13:48:46;15.73;;;7.87;;
4084;SDS011;2057;50.858;6.572;2024-02-16T13:51:12;13.77;;;6.37;;
4084;SDS011;2057;50.858;6.572;2024-02-16T13:53:38;12.50;;;5.73;;
4084;SDS011;2057;50.858;6.572;2024-02-16T13:56:04;11.13;;;5.50;;
4084;SDS011;2057;50.858;6.572;2024-02-16T13:58:31;8.60;;;5.43;;
4084;SDS011;2057;50.858;6.572;2024-02-16T14:00:57;6.70;;;5.27;;
4084;SDS011;2057;50.858;6.572;2024-02-16T14:03:24;19.03;;;5.13;;
4084;SDS011;2057;50.858;6.572;2024-02-16T14:05:50;8.87;;;5.30;;
4084;SDS011;2057;50.858;6.572;2024-02-16T14:08:16;13.50;;;5.77;;
4084;SDS011;2057;50.858;6.572;2024-02-16T14:10:42;13.50;;;5.27;;
4084;SDS011;2057;50.858;6.572;2024-02-16T14:13:08;8.90;;;6.27;;
4084;SDS011;2057;50.858;6.572;2024-02-16T14:15:34;10.60;;;6.47;;
4084;SDS011;2057;50.858;6.572;2024-02-16T14:17:59;8.30;;;5.07;;
4084;SDS011;2057;50.858;6.572;2024-02-16T14:20:25;19.77;;;6.33;;
4084;SDS011;2057;50.858;6.572;2024-02-16T14:22:50;10.40;;;6.27;;
4084;SDS011;2057;50.858;6.572;2024-02-16T14:25:16;9.90;;;5.70;;
4084;SDS011;2057;50.858;6.572;2024-02-16T14:27:41;9.90;;;6.50;;
4084;SDS011;2057;50.858;6.572;2024-02-16T14:30:07;43.73;;;10.17;;
4084;SDS011;2057;50.858;6.572;2024-02-16T14:32:33;7.73;;;6.13;;
4084;SDS011;2057;50.858;6.572;2024-02-16T14:34:58;13.17;;;6.50;;
4084;SDS011;2057;50.858;6.572;2024-02-16T14:37:27;11.10;;;6.77;;
4084;SDS011;2057;50.858;6.572;2024-02-16T14:39:53;16.03;;;7.53;;
4084;SDS011;2057;50.858;6.572;2024-02-16T14:42:22;14.13;;;7.67;;
4084;SDS011;2057;50.858;6.572;2024-02-16T14:44:48;12.10;;;6.63;;
4084;SDS011;2057;50.858;6.572;2024-02-16T14:47:14;11.40;;;7.13;;
4084;SDS011;2057;50.858;6.572;2024-02-16T14:49:44;25.93;;;8.30;;
4084;SDS011;2057;50.858;6.572;2024-02-16T14:52:14;14.27;;;8.10;;
4084;SDS011;2057;50.858;6.572;2024-02-16T14:54:39;10.87;;;9.10;;
4084;SDS011;2057;50.858;6.572;2024-02-16T14:57:04;12.53;;;8.07;;
4084;SDS011;2057;50.858;6.572;2024-02-16T14:59:30;11.30;;;7.90;;
4084;SDS011;2057;50.858;6.572;2024-02-16T15:01:56;15.47;;;9.80;;
4084;SDS011;2057;50.858;6.572;2024-02-16T15:04:21;17.00;;;9.90;;
4084;SDS011;2057;50.858;6.572;2024-02-16T15:06:47;13.47;;;10.10;;
4084;SDS011;2057;50.858;6.572;2024-02-16T15:09:12;19.87;;;9.57;;